createdAt,value
2019-03-05T00:00:42.713Z,100664.05
2019-03-05T00:01:21.363Z,100662.59
2019-03-05T00:01:59.138Z,100661.66
2019-03-05T00:02:35.300Z,100667.23
2019-03-05T00:03:11.512Z,100664.63
2019-03-05T00:03:47.613Z,100671.77
2019-03-05T00:04:23.751Z,100670.84
2019-03-05T00:05:00.042Z,100670.97
2019-03-05T00:05:36.375Z,100674.00
2019-03-05T00:06:12.604Z,100682.19
2019-03-05T00:06:48.850Z,100678.50
2019-03-05T00:07:24.939Z,100682.80
2019-03-05T00:08:01.036Z,100690.66
2019-03-05T00:08:37.225Z,100690.76
2019-03-05T00:09:20.892Z,100695.16
2019-03-05T00:09:57.146Z,100689.47
2019-03-05T00:10:33.312Z,100687.77
2019-03-05T00:11:09.440Z,100687.77
2019-03-05T00:11:45.565Z,100696.02
2019-03-05T00:12:21.658Z,100696.27
2019-03-05T00:12:57.979Z,100695.13
2019-03-05T00:13:34.097Z,100695.13
2019-03-05T00:14:10.246Z,100699.67
2019-03-05T00:14:46.417Z,100691.46
2019-03-05T00:15:25.737Z,100690.46
2019-03-05T00:16:01.864Z,100705.03
2019-03-05T00:16:38.037Z,100703.27
2019-03-05T00:17:14.210Z,100703.27
2019-03-05T00:17:50.383Z,100706.30
2019-03-05T00:18:26.563Z,100714.50
2019-03-05T00:19:02.779Z,100714.50
2019-03-05T00:19:38.865Z,100719.14
2019-03-05T00:20:15.006Z,100719.53
2019-03-05T00:20:51.247Z,100719.53
2019-03-05T00:21:27.485Z,100725.49
2019-03-05T00:22:03.635Z,100716.18
2019-03-05T00:22:39.739Z,100727.75
2019-03-05T00:23:18.691Z,100725.91
2019-03-05T00:24:17.605Z,100725.64
2019-03-05T00:25:11.378Z,100725.64
2019-03-05T00:25:47.542Z,100732.11
2019-03-05T00:26:33.463Z,100729.75
2019-03-05T00:27:09.811Z,100729.75
2019-03-05T00:27:49.667Z,100736.84
2019-03-05T00:28:33.440Z,100738.45
2019-03-05T00:29:33.508Z,100737.85
2019-03-05T00:30:20.637Z,100744.86
2019-03-05T00:31:10.731Z,100747.06
2019-03-05T00:31:47.018Z,100752.97
2019-03-05T00:32:23.190Z,100758.63
2019-03-05T00:33:12.701Z,100759.47
2019-03-05T00:34:16.976Z,100761.88
2019-03-05T00:35:24.767Z,100761.88
2019-03-05T00:36:22.401Z,100761.08
2019-03-05T00:37:11.593Z,100766.94
2019-03-05T00:38:06.258Z,100773.44
2019-03-05T00:39:19.891Z,100773.44
2019-03-05T00:40:12.476Z,100771.48
2019-03-05T00:41:13.265Z,100769.95
2019-03-05T00:42:28.667Z,100769.95
2019-03-05T00:43:13.629Z,100776.13
2019-03-05T00:43:57.907Z,100778.48
2019-03-05T00:44:56.734Z,100773.56
2019-03-05T00:45:56.154Z,100779.48
2019-03-05T00:47:10.930Z,100787.80
2019-03-05T00:48:40.414Z,100780.05
2019-03-05T00:50:07.108Z,100788.52
2019-03-05T00:51:24.878Z,100790.27
2019-03-05T00:52:35.763Z,100797.48
2019-03-05T00:53:30.326Z,100806.33
2019-03-05T00:54:33.830Z,100807.04
2019-03-05T00:55:41.660Z,100805.44
2019-03-05T00:56:42.487Z,100808.19
2019-03-05T00:57:49.000Z,100808.19
2019-03-05T00:58:35.381Z,100812.69
2019-03-05T00:59:48.039Z,100814.14
2019-03-05T01:01:16.581Z,100811.02
2019-03-05T01:02:44.850Z,100811.02
2019-03-05T01:03:52.964Z,100810.11
2019-03-05T01:05:15.761Z,100817.66
2019-03-05T01:06:13.316Z,100817.66
2019-03-05T01:06:49.532Z,100807.83
2019-03-05T01:07:26.197Z,100807.83
2019-03-05T01:08:02.462Z,100815.02
2019-03-05T01:08:38.749Z,100816.61
2019-03-05T01:09:17.594Z,100820.42
2019-03-05T01:09:53.738Z,100821.67
2019-03-05T01:10:30.029Z,100824.27
2019-03-05T01:11:06.146Z,100824.27
2019-03-05T01:11:42.591Z,100824.16
2019-03-05T01:12:20.218Z,100824.16
2019-03-05T01:12:56.460Z,100830.34
2019-03-05T01:13:32.580Z,100826.77
2019-03-05T01:14:09.659Z,100828.35
2019-03-05T01:14:45.836Z,100829.89
2019-03-05T01:15:21.932Z,100829.89
2019-03-05T01:15:58.046Z,100837.78
2019-03-05T01:16:34.591Z,100834.45
2019-03-05T01:17:10.800Z,100839.13
2019-03-05T01:17:47.583Z,100837.05
2019-03-05T01:18:27.286Z,100843.62
2019-03-05T01:19:04.172Z,100835.42
2019-03-05T01:19:40.310Z,100843.13
2019-03-05T01:20:16.530Z,100837.89
2019-03-05T01:20:52.806Z,100838.57
2019-03-05T01:21:28.993Z,100845.08
2019-03-05T01:22:05.351Z,100839.70
2019-03-05T01:22:42.049Z,100846.64
2019-03-05T01:23:18.679Z,100842.69
2019-03-05T01:23:54.826Z,100846.91
2019-03-05T01:24:31.073Z,100847.09
2019-03-05T01:25:07.837Z,100844.69
2019-03-05T01:25:44.160Z,100850.78
2019-03-05T01:26:20.717Z,100850.34
2019-03-05T01:26:56.830Z,100857.27
2019-03-05T01:27:33.585Z,100859.73
2019-03-05T01:28:09.828Z,100858.87
2019-03-05T01:28:46.060Z,100855.35
2019-03-05T01:29:22.222Z,100862.30
2019-03-05T01:29:58.366Z,100861.63
2019-03-05T01:30:56.947Z,100859.34
2019-03-05T01:31:50.107Z,100868.91
2019-03-05T01:32:42.972Z,100868.92
2019-03-05T01:33:19.207Z,100871.61
2019-03-05T01:34:00.447Z,100874.02
2019-03-05T01:34:58.173Z,100875.58
2019-03-05T01:35:38.636Z,100883.06
2019-03-05T01:36:18.124Z,100888.59
2019-03-05T01:36:57.130Z,100882.61
2019-03-05T01:37:33.326Z,100884.00
2019-03-05T01:38:09.652Z,100886.89
2019-03-05T01:38:55.418Z,100891.41
2019-03-05T01:39:35.850Z,100887.76
2019-03-05T01:40:30.979Z,100891.20
2019-03-05T01:41:09.189Z,100889.11
2019-03-05T01:41:45.270Z,100895.63
2019-03-05T01:42:21.493Z,100895.25
2019-03-05T01:42:57.600Z,100895.36
2019-03-05T01:43:33.765Z,100895.60
2019-03-05T01:44:09.989Z,100897.09
2019-03-05T01:44:46.656Z,100898.28
2019-03-05T01:45:22.937Z,100895.81
2019-03-05T01:45:59.051Z,100903.64
2019-03-05T01:46:35.108Z,100902.46
2019-03-05T01:47:11.361Z,100901.41
2019-03-05T01:47:47.469Z,100903.70
2019-03-05T01:48:23.663Z,100904.27
2019-03-05T01:48:59.817Z,100911.55
2019-03-05T01:49:35.921Z,100907.33
2019-03-05T01:50:13.940Z,100905.80
2019-03-05T01:50:50.079Z,100911.47
2019-03-05T01:51:26.226Z,100910.29
2019-03-05T01:52:02.346Z,100905.06
2019-03-05T01:52:38.479Z,100912.03
2019-03-05T01:53:14.655Z,100915.23
2019-03-05T01:53:50.803Z,100911.65
2019-03-05T01:54:26.883Z,100913.00
2019-03-05T01:55:03.005Z,100902.97
2019-03-05T01:55:39.268Z,100915.20
2019-03-05T01:56:15.397Z,100910.38
2019-03-05T01:56:51.485Z,100914.20
2019-03-05T01:57:27.644Z,100916.75
2019-03-05T01:58:03.794Z,100916.84
2019-03-05T01:58:39.981Z,100915.07
2019-03-05T01:59:16.162Z,100918.27
2019-03-05T01:59:52.327Z,100916.84
2019-03-05T02:00:28.635Z,100920.28
2019-03-05T02:01:04.827Z,100918.13
2019-03-05T02:01:41.021Z,100918.25
2019-03-05T02:02:17.231Z,100919.22
2019-03-05T02:02:53.386Z,100920.67
2019-03-05T02:03:29.601Z,100928.29
2019-03-05T02:04:06.197Z,100920.41
2019-03-05T02:04:42.505Z,100920.49
2019-03-05T02:05:20.484Z,100920.61
2019-03-05T02:05:56.691Z,100922.62
2019-03-05T02:06:32.906Z,100922.09
2019-03-05T02:07:09.443Z,100920.58
2019-03-05T02:07:45.562Z,100920.25
2019-03-05T02:08:21.680Z,100921.37
2019-03-05T02:08:57.864Z,100922.34
2019-03-05T02:09:33.954Z,100921.53
2019-03-05T02:10:16.170Z,100920.92
2019-03-05T02:10:52.505Z,100923.08
2019-03-05T02:11:28.665Z,100926.70
2019-03-05T02:12:04.767Z,100923.53
2019-03-05T02:12:41.062Z,100923.69
2019-03-05T02:13:17.167Z,100924.55
2019-03-05T02:13:53.294Z,100924.14
2019-03-05T02:14:29.447Z,100924.25
2019-03-05T02:15:05.836Z,100932.80
2019-03-05T02:15:41.904Z,100933.34
2019-03-05T02:16:18.000Z,100930.86
2019-03-05T02:16:54.097Z,100929.41
2019-03-05T02:17:30.683Z,100935.98
2019-03-05T02:18:06.769Z,100929.00
2019-03-05T02:18:42.926Z,100929.20
2019-03-05T02:19:39.526Z,100925.75
2019-03-05T02:20:25.998Z,100930.57
2019-03-05T02:21:02.305Z,100932.80
2019-03-05T02:21:38.420Z,100927.76
2019-03-05T02:22:17.982Z,100936.31
2019-03-05T02:23:09.015Z,100932.61
2019-03-05T02:24:26.556Z,100936.75
2019-03-05T02:25:38.387Z,100933.27
2019-03-05T02:26:50.128Z,100941.34
2019-03-05T02:28:01.641Z,100941.34
2019-03-05T02:28:52.815Z,100941.26
2019-03-05T02:29:59.750Z,100943.48
2019-03-05T02:31:02.998Z,100943.48
2019-03-05T02:32:21.545Z,100944.12
2019-03-05T02:33:45.238Z,100938.59
2019-03-05T02:34:47.860Z,100947.80
2019-03-05T02:35:57.398Z,100944.60
2019-03-05T02:36:44.884Z,100946.77
2019-03-05T02:37:38.490Z,100947.38
2019-03-05T02:38:25.632Z,100950.58
2019-03-05T02:39:32.797Z,100946.78
2019-03-05T02:40:28.960Z,100946.66
2019-03-05T02:41:36.907Z,100955.92
2019-03-05T02:42:56.168Z,100953.52
2019-03-05T02:44:06.938Z,100952.72
2019-03-05T02:45:20.633Z,100950.80
2019-03-05T02:46:31.993Z,100950.75
2019-03-05T02:47:51.941Z,100951.73
2019-03-05T02:49:20.734Z,100951.27
2019-03-05T02:50:37.212Z,100954.55
2019-03-05T02:51:29.449Z,100961.33
2019-03-05T02:52:41.338Z,100958.55
2019-03-05T02:53:32.228Z,100966.77
2019-03-05T02:54:44.600Z,100964.78
2019-03-05T02:55:56.009Z,100965.30
2019-03-05T02:57:08.159Z,100960.98
2019-03-05T02:57:41.392Z,100969.34
2019-03-05T02:58:14.746Z,100964.09
2019-03-05T02:58:47.938Z,100958.01
2019-03-05T02:59:24.032Z,100956.88
2019-03-05T03:00:00.431Z,100966.49
2019-03-05T03:00:55.458Z,100964.50
2019-03-05T03:01:57.909Z,100964.63
2019-03-05T03:02:45.699Z,100961.11
2019-03-05T03:03:40.750Z,100967.92
2019-03-05T03:04:17.698Z,100968.49
2019-03-05T03:04:56.862Z,100971.65
2019-03-05T03:05:37.106Z,100971.81
2019-03-05T03:06:17.443Z,100970.84
2019-03-05T03:06:53.940Z,100968.85
2019-03-05T03:07:30.263Z,100968.35
2019-03-05T03:08:06.567Z,100974.06
2019-03-05T03:08:42.806Z,100962.50
2019-03-05T03:09:53.344Z,100962.97
2019-03-05T03:10:29.518Z,100960.97
2019-03-05T03:11:05.805Z,100957.02
2019-03-05T03:11:41.898Z,100963.97
2019-03-05T03:12:18.680Z,100960.55
2019-03-05T03:12:55.136Z,100959.45
2019-03-05T03:13:31.343Z,100961.68
2019-03-05T03:14:07.564Z,100966.84
2019-03-05T03:14:43.682Z,100962.08
2019-03-05T03:15:20.727Z,100963.91
2019-03-05T03:15:56.800Z,100962.08
2019-03-05T03:16:32.898Z,100970.66
2019-03-05T03:17:09.066Z,100966.66
2019-03-05T03:17:45.205Z,100961.77
2019-03-05T03:18:21.370Z,100964.17
2019-03-05T03:18:57.517Z,100961.58
2019-03-05T03:19:33.786Z,100958.19
2019-03-05T03:20:10.749Z,100959.58
2019-03-05T03:20:46.995Z,100963.20
2019-03-05T03:21:23.165Z,100959.91
2019-03-05T03:21:59.355Z,100957.31
2019-03-05T03:22:35.705Z,100955.78
2019-03-05T03:23:11.851Z,100961.94
2019-03-05T03:23:48.006Z,100953.35
2019-03-05T03:24:24.143Z,100949.83
2019-03-05T03:25:00.406Z,100954.59
2019-03-05T03:25:36.600Z,100956.84
2019-03-05T03:26:12.785Z,100960.51
2019-03-05T03:26:49.076Z,100961.58
2019-03-05T03:27:25.159Z,100956.62
2019-03-05T03:28:01.462Z,100963.44
2019-03-05T03:28:37.639Z,100957.08
2019-03-05T03:29:13.796Z,100957.14
2019-03-05T03:29:49.922Z,100961.27
2019-03-05T03:30:27.153Z,100957.80
2019-03-05T03:31:03.251Z,100957.23
2019-03-05T03:31:39.373Z,100959.58
2019-03-05T03:32:15.527Z,100955.97
2019-03-05T03:32:51.689Z,100958.72
2019-03-05T03:33:27.983Z,100951.45
2019-03-05T03:34:04.095Z,100951.11
2019-03-05T03:34:40.243Z,100951.27
2019-03-05T03:35:16.945Z,100951.27
2019-03-05T03:35:53.103Z,100946.44
2019-03-05T03:36:29.206Z,100943.38
2019-03-05T03:37:05.344Z,100942.56
2019-03-05T03:37:41.447Z,100945.05
2019-03-05T03:38:17.538Z,100941.98
2019-03-05T03:38:53.669Z,100943.38
2019-03-05T03:39:29.787Z,100944.48
2019-03-05T03:40:06.879Z,100931.70
2019-03-05T03:40:43.020Z,100929.69
2019-03-05T03:41:19.232Z,100930.95
2019-03-05T03:41:55.325Z,100928.38
2019-03-05T03:42:31.479Z,100933.51
2019-03-05T03:43:07.574Z,100933.56
2019-03-05T03:43:43.866Z,100938.30
2019-03-05T03:44:20.114Z,100931.14
2019-03-05T03:44:56.222Z,100930.39
2019-03-05T03:45:32.343Z,100935.63
2019-03-05T03:46:08.565Z,100940.20
2019-03-05T03:46:44.662Z,100938.20
2019-03-05T03:47:20.766Z,100932.30
2019-03-05T03:47:56.940Z,100938.91
2019-03-05T03:48:33.034Z,100934.94
2019-03-05T03:49:09.330Z,100935.30
2019-03-05T03:49:45.531Z,100940.98
2019-03-05T03:50:21.776Z,100941.48
2019-03-05T03:50:57.938Z,100941.27
2019-03-05T03:51:34.197Z,100938.36
2019-03-05T03:52:10.352Z,100939.27
2019-03-05T03:52:46.455Z,100936.76
2019-03-05T03:53:22.542Z,100938.98
2019-03-05T03:53:58.768Z,100941.27
2019-03-05T03:54:34.887Z,100938.08
2019-03-05T03:55:12.081Z,100939.91
2019-03-05T03:55:48.249Z,100936.61
2019-03-05T03:56:24.408Z,100935.73
2019-03-05T03:57:00.511Z,100937.39
2019-03-05T03:57:36.705Z,100935.75
2019-03-05T03:58:12.880Z,100932.79
2019-03-05T03:58:49.130Z,100933.97
2019-03-05T03:59:25.271Z,100930.10
2019-03-05T04:00:01.439Z,100933.30
2019-03-05T04:00:37.548Z,100932.62
2019-03-05T04:01:13.735Z,100936.07
2019-03-05T04:01:49.836Z,100934.36
2019-03-05T04:02:25.928Z,100926.47
2019-03-05T04:03:02.062Z,100935.80
2019-03-05T04:03:38.141Z,100930.33
2019-03-05T04:04:14.277Z,100927.61
2019-03-05T04:04:50.453Z,100930.45
2019-03-05T04:05:26.723Z,100932.44
2019-03-05T04:06:02.946Z,100933.12
2019-03-05T04:06:39.141Z,100924.58
2019-03-05T04:07:15.322Z,100933.88
2019-03-05T04:07:51.561Z,100928.75
2019-03-05T04:08:27.714Z,100929.77
2019-03-05T04:09:04.117Z,100929.66
2019-03-05T04:09:40.312Z,100924.23
2019-03-05T04:10:16.456Z,100922.88
2019-03-05T04:10:52.678Z,100929.02
2019-03-05T04:11:28.808Z,100931.53
2019-03-05T04:12:05.098Z,100920.19
2019-03-05T04:12:41.212Z,100924.81
2019-03-05T04:13:17.397Z,100923.26
2019-03-05T04:13:53.492Z,100914.05
2019-03-05T04:14:29.641Z,100921.56
2019-03-05T04:15:05.867Z,100918.37
2019-03-05T04:15:42.140Z,100913.81
2019-03-05T04:16:18.331Z,100912.79
2019-03-05T04:16:54.458Z,100914.50
2019-03-05T04:17:30.617Z,100910.63
2019-03-05T04:18:06.909Z,100920.88
2019-03-05T04:18:43.030Z,100913.47
2019-03-05T04:19:23.188Z,100919.05
2019-03-05T04:19:59.331Z,100914.03
2019-03-05T04:20:38.809Z,100916.09
2019-03-05T04:21:15.045Z,100913.24
2019-03-05T04:21:51.212Z,100918.71
2019-03-05T04:22:27.401Z,100918.13
2019-03-05T04:23:04.163Z,100919.50
2019-03-05T04:23:40.316Z,100913.31
2019-03-05T04:24:17.046Z,100914.45
2019-03-05T04:24:53.199Z,100915.33
2019-03-05T04:25:30.037Z,100914.45
2019-03-05T04:26:10.023Z,100911.00
2019-03-05T04:26:46.173Z,100904.66
2019-03-05T04:27:22.405Z,100907.84
2019-03-05T04:27:58.596Z,100905.35
2019-03-05T04:28:34.775Z,100902.16
2019-03-05T04:29:10.987Z,100906.70
2019-03-05T04:29:47.846Z,100900.12
2019-03-05T04:30:27.590Z,100901.36
2019-03-05T04:31:04.299Z,100901.59
2019-03-05T04:31:40.397Z,100902.20
2019-03-05T04:32:16.490Z,100902.42
2019-03-05T04:32:52.615Z,100904.81
2019-03-05T04:33:28.807Z,100902.55
2019-03-05T04:34:05.016Z,100899.47
2019-03-05T04:34:41.220Z,100894.69
2019-03-05T04:35:17.259Z,100897.87
2019-03-05T04:35:53.440Z,100899.05
2019-03-05T04:36:29.695Z,100902.92
2019-03-05T04:37:05.928Z,100899.50
2019-03-05T04:37:42.048Z,100895.38
2019-03-05T04:38:18.221Z,100891.50
2019-03-05T04:38:54.469Z,100891.05
2019-03-05T04:39:30.584Z,100893.44
2019-03-05T04:40:06.972Z,100891.80
2019-03-05T04:40:43.233Z,100888.95
2019-03-05T04:41:19.384Z,100890.50
2019-03-05T04:41:55.463Z,100888.34
2019-03-05T04:42:32.087Z,100886.59
2019-03-05T04:43:11.760Z,100879.88
2019-03-05T04:43:47.850Z,100879.34
2019-03-05T04:44:42.767Z,100889.70
2019-03-05T04:46:11.530Z,100882.08
2019-03-05T04:46:54.306Z,100875.59
2019-03-05T04:47:30.384Z,100875.07
2019-03-05T04:48:06.768Z,100872.83
2019-03-05T04:48:43.958Z,100870.78
2019-03-05T04:49:31.061Z,100870.67
2019-03-05T04:50:15.036Z,100866.45
2019-03-05T04:50:54.750Z,100869.21
2019-03-05T04:51:39.115Z,100867.84
2019-03-05T04:52:17.944Z,100868.07
2019-03-05T04:52:54.195Z,100868.21
2019-03-05T04:53:30.301Z,100863.06
2019-03-05T04:54:06.494Z,100866.68
2019-03-05T04:54:42.596Z,100862.38
2019-03-05T04:55:18.802Z,100864.42
2019-03-05T04:55:54.942Z,100863.60
2019-03-05T04:56:31.062Z,100862.72
2019-03-05T04:57:07.825Z,100860.78
2019-03-05T04:57:44.555Z,100860.58
2019-03-05T04:58:21.274Z,100861.94
2019-03-05T04:58:57.984Z,100855.13
2019-03-05T04:59:34.744Z,100852.37
2019-03-05T05:00:14.340Z,100858.52
2019-03-05T05:00:50.615Z,100857.04
2019-03-05T05:01:26.805Z,100858.06
2019-03-05T05:02:02.949Z,100855.34
2019-03-05T05:02:39.073Z,100861.23
2019-03-05T05:03:15.422Z,100855.20
2019-03-05T05:03:51.654Z,100849.94
2019-03-05T05:04:27.764Z,100852.56
2019-03-05T05:05:03.904Z,100849.71
2019-03-05T05:05:40.054Z,100855.75
2019-03-05T05:06:16.218Z,100852.13
2019-03-05T05:06:52.373Z,100849.48
2019-03-05T05:07:28.503Z,100849.28
2019-03-05T05:08:04.659Z,100842.80
2019-03-05T05:08:40.810Z,100847.78
2019-03-05T05:09:16.923Z,100851.22
2019-03-05T05:09:53.201Z,100846.66
2019-03-05T05:10:29.313Z,100849.52
2019-03-05T05:11:05.475Z,100844.59
2019-03-05T05:11:41.630Z,100845.50
2019-03-05T05:12:17.859Z,100847.55
2019-03-05T05:12:54.016Z,100839.47
2019-03-05T05:13:30.129Z,100835.94
2019-03-05T05:14:06.318Z,100834.91
2019-03-05T05:14:42.507Z,100839.47
2019-03-05T05:15:29.898Z,100840.27
2019-03-05T05:16:06.044Z,100842.89
2019-03-05T05:16:42.239Z,100837.88
2019-03-05T05:17:18.411Z,100838.64
2019-03-05T05:17:54.508Z,100839.78
2019-03-05T05:18:30.631Z,100828.97
2019-03-05T05:19:06.980Z,100829.54
2019-03-05T05:19:43.082Z,100837.31
2019-03-05T05:20:19.221Z,100830.94
2019-03-05T05:20:55.369Z,100828.20
2019-03-05T05:21:31.516Z,100832.75
2019-03-05T05:22:07.750Z,100830.95
2019-03-05T05:22:43.894Z,100824.11
2019-03-05T05:23:20.059Z,100827.52
2019-03-05T05:23:56.233Z,100823.42
2019-03-05T05:24:32.466Z,100822.63
2019-03-05T05:25:08.616Z,100823.67
2019-03-05T05:25:44.768Z,100821.83
2019-03-05T05:26:20.893Z,100818.89
2019-03-05T05:26:57.053Z,100818.33
2019-03-05T05:27:33.156Z,100820.72
2019-03-05T05:28:09.293Z,100826.63
2019-03-05T05:28:45.473Z,100822.30
2019-03-05T05:29:21.580Z,100824.80
2019-03-05T05:29:57.669Z,100822.85
2019-03-05T05:30:38.027Z,100819.55
2019-03-05T05:31:14.147Z,100824.81
2019-03-05T05:31:50.317Z,100814.56
2019-03-05T05:32:26.400Z,100819.34
2019-03-05T05:33:02.718Z,100812.17
2019-03-05T05:33:38.920Z,100809.89
2019-03-05T05:34:15.038Z,100814.56
2019-03-05T05:34:51.277Z,100806.69
2019-03-05T05:35:27.351Z,100808.86
2019-03-05T05:36:03.585Z,100811.83
2019-03-05T05:36:39.777Z,100810.13
2019-03-05T05:37:15.973Z,100807.50
2019-03-05T05:37:51.998Z,100805.89
2019-03-05T05:38:28.225Z,100807.71
2019-03-05T05:39:04.830Z,100800.63
2019-03-05T05:40:15.151Z,100801.75
2019-03-05T05:40:51.270Z,100801.98
2019-03-05T05:41:27.425Z,100800.59
2019-03-05T05:42:03.567Z,100804.83
2019-03-05T05:42:39.816Z,100796.49
2019-03-05T05:43:21.219Z,100793.09
2019-03-05T05:43:57.521Z,100800.16
2019-03-05T05:44:33.675Z,100794.43
2019-03-05T05:45:13.696Z,100792.40
2019-03-05T05:45:51.328Z,100790.11
2019-03-05T05:46:27.509Z,100794.21
2019-03-05T05:47:03.626Z,100789.88
2019-03-05T05:47:39.779Z,100791.03
2019-03-05T05:48:15.919Z,100788.98
2019-03-05T05:48:52.051Z,100784.62
2019-03-05T05:49:28.176Z,100787.62
2019-03-05T05:50:04.269Z,100786.92
2019-03-05T05:50:40.380Z,100790.23
2019-03-05T05:51:16.510Z,100782.62
2019-03-05T05:51:52.592Z,100791.52
2019-03-05T05:52:28.705Z,100788.08
2019-03-05T05:53:04.965Z,100780.00
2019-03-05T05:53:41.060Z,100776.92
2019-03-05T05:54:17.170Z,100782.39
2019-03-05T05:54:53.325Z,100777.84
2019-03-05T05:55:29.493Z,100774.19
2019-03-05T05:56:05.779Z,100778.27
2019-03-05T05:56:41.874Z,100777.56
2019-03-05T05:57:17.949Z,100776.42
2019-03-05T05:57:54.080Z,100767.77
2019-03-05T05:58:30.826Z,100772.80
2019-03-05T05:59:07.587Z,100771.42
2019-03-05T05:59:43.919Z,100770.73
2019-03-05T06:00:20.333Z,100768.79
2019-03-05T06:00:57.826Z,100772.80
2019-03-05T06:01:33.913Z,100765.95
2019-03-05T06:02:10.081Z,100763.13
2019-03-05T06:02:46.215Z,100766.53
2019-03-05T06:03:22.428Z,100763.00
2019-03-05T06:03:58.536Z,100761.41
2019-03-05T06:04:34.677Z,100766.63
2019-03-05T06:05:10.997Z,100758.92
2019-03-05T06:05:47.195Z,100760.53
2019-03-05T06:06:23.380Z,100765.55
2019-03-05T06:06:59.554Z,100764.06
2019-03-05T06:07:35.777Z,100758.24
2019-03-05T06:08:11.911Z,100760.53
2019-03-05T06:08:48.070Z,100761.20
2019-03-05T06:09:24.219Z,100756.18
2019-03-05T06:10:00.495Z,100760.64
2019-03-05T06:10:36.698Z,100755.96
2019-03-05T06:11:12.882Z,100748.78
2019-03-05T06:11:49.000Z,100756.63
2019-03-05T06:12:25.063Z,100746.61
2019-03-05T06:13:01.251Z,100751.51
2019-03-05T06:13:37.558Z,100755.39
2019-03-05T06:14:13.679Z,100753.23
2019-03-05T06:14:49.779Z,100750.27
2019-03-05T06:15:25.955Z,100745.47
2019-03-05T06:16:02.118Z,100746.84
2019-03-05T06:16:38.213Z,100746.39
2019-03-05T06:17:14.404Z,100744.10
2019-03-05T06:17:50.592Z,100748.65
2019-03-05T06:18:26.907Z,100752.30
2019-03-05T06:19:03.213Z,100750.71
2019-03-05T06:19:39.356Z,100744.81
2019-03-05T06:20:15.776Z,100745.05
2019-03-05T06:20:51.922Z,100744.02
2019-03-05T06:21:28.106Z,100735.72
2019-03-05T06:22:04.245Z,100741.16
2019-03-05T06:22:40.406Z,100737.41
2019-03-05T06:23:16.534Z,100734.35
2019-03-05T06:23:52.614Z,100736.86
2019-03-05T06:24:28.833Z,100730.03
2019-03-05T06:25:05.125Z,100735.27
2019-03-05T06:25:41.276Z,100734.12
2019-03-05T06:26:17.425Z,100729.33
2019-03-05T06:26:53.591Z,100727.74
2019-03-05T06:27:29.724Z,100726.25
2019-03-05T06:28:05.911Z,100725.45
2019-03-05T06:28:42.219Z,100735.92
2019-03-05T06:29:18.474Z,100731.13
2019-03-05T06:29:54.646Z,100729.41
2019-03-05T06:30:30.933Z,100727.49
2019-03-05T06:31:07.081Z,100727.27
2019-03-05T06:31:43.362Z,100731.05
2019-03-05T06:32:19.505Z,100727.84
2019-03-05T06:32:55.662Z,100728.78
2019-03-05T06:33:31.782Z,100724.91
2019-03-05T06:34:07.965Z,100727.27
2019-03-05T06:34:44.083Z,100727.94
2019-03-05T06:35:20.197Z,100730.20
2019-03-05T06:35:56.357Z,100730.20
2019-03-05T06:36:53.275Z,100725.66
2019-03-05T06:37:29.465Z,100725.88
2019-03-05T06:38:05.702Z,100721.55
2019-03-05T06:38:42.436Z,100717.33
2019-03-05T06:39:27.275Z,100718.34
2019-03-05T06:40:03.474Z,100725.66
2019-03-05T06:40:40.194Z,100716.88
2019-03-05T06:41:16.962Z,100715.19
2019-03-05T06:41:53.731Z,100720.43
2019-03-05T06:42:29.856Z,100714.30
2019-03-05T06:43:06.472Z,100712.45
2019-03-05T06:43:42.670Z,100710.42
2019-03-05T06:44:18.834Z,100710.64
2019-03-05T06:44:54.980Z,100713.16
2019-03-05T06:45:31.325Z,100707.02
2019-03-05T06:46:07.498Z,100707.23
2019-03-05T06:46:43.665Z,100702.56
2019-03-05T06:47:19.934Z,100710.89
2019-03-05T06:47:56.041Z,100705.87
2019-03-05T06:48:32.175Z,100701.31
2019-03-05T06:49:08.271Z,100701.77
2019-03-05T06:49:44.466Z,100695.85
2019-03-05T06:50:21.296Z,100704.25
2019-03-05T06:50:57.473Z,100698.78
2019-03-05T06:51:33.616Z,100696.27
2019-03-05T06:52:11.733Z,100700.15
2019-03-05T06:52:47.595Z,100693.11
2019-03-05T06:53:23.807Z,100688.34
2019-03-05T06:53:59.991Z,100695.42
2019-03-05T06:54:36.137Z,100690.20
2019-03-05T06:55:13.015Z,100692.57
2019-03-05T06:55:49.119Z,100695.54
2019-03-05T06:56:25.436Z,100692.70
2019-03-05T06:57:01.706Z,100692.93
2019-03-05T06:57:37.866Z,100687.79
2019-03-05T06:58:14.067Z,100693.12
2019-03-05T06:58:50.134Z,100690.40
2019-03-05T06:59:26.328Z,100692.21
2019-03-05T07:00:02.501Z,100686.74
2019-03-05T07:00:39.483Z,100689.27
2019-03-05T07:01:15.766Z,100686.53
2019-03-05T07:01:51.866Z,100685.86
2019-03-05T07:02:28.105Z,100682.42
2019-03-05T07:03:04.463Z,100682.88
2019-03-05T07:03:40.655Z,100686.53
2019-03-05T07:04:16.778Z,100689.83
2019-03-05T07:04:58.667Z,100688.56
2019-03-05T07:06:08.861Z,100688.56
2019-03-05T07:06:55.272Z,100683.09
2019-03-05T07:07:32.757Z,100679.92
2019-03-05T07:08:08.950Z,100688.34
2019-03-05T07:08:48.819Z,100690.86
2019-03-05T07:09:48.528Z,100688.34
2019-03-05T07:10:43.055Z,100690.63
2019-03-05T07:11:53.636Z,100682.88
2019-03-05T07:12:46.168Z,100681.63
2019-03-05T07:13:23.583Z,100685.63
2019-03-05T07:14:00.818Z,100682.01
2019-03-05T07:14:59.183Z,100679.98
2019-03-05T07:16:15.863Z,100682.48
2019-03-05T07:17:09.372Z,100681.57
2019-03-05T07:17:49.442Z,100680.19
2019-03-05T07:18:29.112Z,100679.76
2019-03-05T07:19:22.058Z,100679.98
2019-03-05T07:20:19.514Z,100677.70
2019-03-05T07:21:28.385Z,100676.35
2019-03-05T07:22:49.672Z,100672.48
2019-03-05T07:23:47.070Z,100667.22
2019-03-05T07:24:48.120Z,100661.53
2019-03-05T07:25:24.284Z,100667.91
2019-03-05T07:26:00.401Z,100665.42
2019-03-05T07:26:36.522Z,100666.53
2019-03-05T07:27:13.019Z,100665.73
2019-03-05T07:27:55.934Z,100671.77
2019-03-05T07:28:32.078Z,100660.86
2019-03-05T07:29:08.259Z,100660.41
2019-03-05T07:29:44.884Z,100662.00
2019-03-05T07:30:25.540Z,100660.17
2019-03-05T07:31:01.735Z,100658.58
2019-03-05T07:31:38.024Z,100656.52
2019-03-05T07:32:14.171Z,100657.44
2019-03-05T07:32:50.424Z,100656.09
2019-03-05T07:33:26.484Z,100658.25
2019-03-05T07:34:02.719Z,100657.91
2019-03-05T07:34:40.266Z,100653.46
2019-03-05T07:35:19.294Z,100653.02
2019-03-05T07:35:55.382Z,100658.56
2019-03-05T07:36:31.590Z,100654.24
2019-03-05T07:37:08.607Z,100648.12
2019-03-05T07:37:44.784Z,100650.14
2019-03-05T07:38:21.032Z,100655.61
2019-03-05T07:38:57.098Z,100645.27
2019-03-05T07:39:33.371Z,100649.81
2019-03-05T07:40:09.956Z,100646.30
2019-03-05T07:40:46.756Z,100647.20
2019-03-05T07:41:23.551Z,100647.20
2019-03-05T07:42:03.337Z,100643.09
2019-03-05T07:42:40.092Z,100650.40